sensor_id;sensor_type;location;lat;lon;timestamp;P1;durP1;ratioP1;P2;durP2;ratioP2
33367;SDS011;19724;51.114;13.906;2023-03-14T00:00:37;7.07;;;3.47;;
33367;SDS011;19724;51.114;13.906;2023-03-14T00:03:06;6.90;;;4.10;;
33367;SDS011;19724;51.114;13.906;2023-03-14T00:05:33;6.03;;;3.45;;
33367;SDS011;19724;51.114;13.906;2023-03-14T00:07:59;6.38;;;3.88;;
33367;SDS011;19724;51.114;13.906;2023-03-14T00:10:24;5.55;;;3.08;;
33367;SDS011;19724;51.114;13.906;2023-03-14T00:12:50;6.10;;;3.22;;
33367;SDS011;19724;51.114;13.906;2023-03-14T00:15:15;6.35;;;3.60;;
33367;SDS011;19724;51.114;13.906;2023-03-14T00:17:42;5.38;;;3.40;;
33367;SDS011;19724;51.114;13.906;2023-03-14T00:20:09;6.93;;;3.72;;
33367;SDS011;19724;51.114;13.906;2023-03-14T00:22:36;7.22;;;4.50;;
33367;SDS011;19724;51.114;13.906;2023-03-14T00:25:04;8.70;;;4.85;;
33367;SDS011;19724;51.114;13.906;2023-03-14T00:27:31;8.32;;;5.60;;
33367;SDS011;19724;51.114;13.906;2023-03-14T00:29:57;11.52;;;5.85;;
33367;SDS011;19724;51.114;13.906;2023-03-14T00:32:24;7.40;;;5.05;;
33367;SDS011;19724;51.114;13.906;2023-03-14T00:34:50;11.80;;;5.88;;
33367;SDS011;19724;51.114;13.906;2023-03-14T00:37:15;10.18;;;4.93;;
33367;SDS011;19724;51.114;13.906;2023-03-14T00:39:41;9.00;;;5.60;;
33367;SDS011;19724;51.114;13.906;2023-03-14T00:42:07;11.40;;;6.20;;
33367;SDS011;19724;51.114;13.906;2023-03-14T00:44:32;13.98;;;5.72;;
33367;SDS011;19724;51.114;13.906;2023-03-14T00:46:58;11.90;;;8.30;;
33367;SDS011;19724;51.114;13.906;2023-03-14T00:49:24;13.95;;;8.32;;
33367;SDS011;19724;51.114;13.906;2023-03-14T00:51:49;9.35;;;7.22;;
33367;SDS011;19724;51.114;13.906;2023-03-14T00:54:16;12.40;;;7.43;;
33367;SDS011;19724;51.114;13.906;2023-03-14T00:56:42;12.63;;;7.68;;
33367;SDS011;19724;51.114;13.906;2023-03-14T00:59:09;9.52;;;7.35;;
33367;SDS011;19724;51.114;13.906;2023-03-14T01:01:35;7.75;;;5.35;;
33367;SDS011;19724;51.114;13.906;2023-03-14T01:04:01;7.05;;;4.78;;
33367;SDS011;19724;51.114;13.906;2023-03-14T01:06:27;7.82;;;5.47;;
33367;SDS011;19724;51.114;13.906;2023-03-14T01:08:54;6.47;;;5.10;;
33367;SDS011;19724;51.114;13.906;2023-03-14T01:11:25;6.68;;;4.55;;
33367;SDS011;19724;51.114;13.906;2023-03-14T01:13:53;6.65;;;4.70;;
33367;SDS011;19724;51.114;13.906;2023-03-14T01:16:19;7.40;;;5.45;;
33367;SDS011;19724;51.114;13.906;2023-03-14T01:18:46;8.68;;;6.60;;
33367;SDS011;19724;51.114;13.906;2023-03-14T01:23:41;11.73;;;8.30;;
33367;SDS011;19724;51.114;13.906;2023-03-14T01:26:14;8.98;;;6.60;;
33367;SDS011;19724;51.114;13.906;2023-03-14T01:28:44;7.95;;;6.80;;
33367;SDS011;19724;51.114;13.906;2023-03-14T01:31:10;11.85;;;8.35;;
33367;SDS011;19724;51.114;13.906;2023-03-14T01:33:37;13.45;;;9.35;;
33367;SDS011;19724;51.114;13.906;2023-03-14T01:36:03;12.18;;;9.48;;
33367;SDS011;19724;51.114;13.906;2023-03-14T01:38:30;13.43;;;9.00;;
33367;SDS011;19724;51.114;13.906;2023-03-14T01:40:57;12.77;;;9.18;;
33367;SDS011;19724;51.114;13.906;2023-03-14T01:43:23;13.68;;;9.80;;
33367;SDS011;19724;51.114;13.906;2023-03-14T01:51:09;14.60;;;10.45;;
33367;SDS011;19724;51.114;13.906;2023-03-14T01:53:38;10.48;;;8.52;;
33367;SDS011;19724;51.114;13.906;2023-03-14T01:56:07;9.98;;;7.80;;
33367;SDS011;19724;51.114;13.906;2023-03-14T01:58:36;12.50;;;8.70;;
33367;SDS011;19724;51.114;13.906;2023-03-14T02:01:04;13.98;;;8.20;;
33367;SDS011;19724;51.114;13.906;2023-03-14T02:03:33;12.52;;;8.95;;
33367;SDS011;19724;51.114;13.906;2023-03-14T02:06:09;10.32;;;7.80;;
33367;SDS011;19724;51.114;13.906;2023-03-14T02:08:36;10.05;;;8.15;;
33367;SDS011;19724;51.114;13.906;2023-03-14T02:11:04;9.38;;;7.47;;
33367;SDS011;19724;51.114;13.906;2023-03-14T02:13:32;8.90;;;6.50;;
33367;SDS011;19724;51.114;13.906;2023-03-14T02:15:58;10.05;;;7.60;;
33367;SDS011;19724;51.114;13.906;2023-03-14T02:18:23;9.77;;;7.25;;
33367;SDS011;19724;51.114;13.906;2023-03-14T02:21:00;10.52;;;7.22;;
33367;SDS011;19724;51.114;13.906;2023-03-14T02:23:48;9.02;;;6.43;;
33367;SDS011;19724;51.114;13.906;2023-03-14T02:27:22;7.10;;;5.70;;
33367;SDS011;19724;51.114;13.906;2023-03-14T02:29:28;8.15;;;6.60;;
33367;SDS011;19724;51.114;13.906;2023-03-14T02:31:55;6.85;;;4.95;;
33367;SDS011;19724;51.114;13.906;2023-03-14T02:34:20;7.07;;;5.03;;
33367;SDS011;19724;51.114;13.906;2023-03-14T02:36:46;5.85;;;4.25;;
33367;SDS011;19724;51.114;13.906;2023-03-14T02:39:24;5.75;;;4.10;;
33367;SDS011;19724;51.114;13.906;2023-03-14T02:42:00;6.55;;;3.85;;
33367;SDS011;19724;51.114;13.906;2023-03-14T02:44:25;5.70;;;3.67;;
33367;SDS011;19724;51.114;13.906;2023-03-14T02:46:51;4.28;;;2.67;;
33367;SDS011;19724;51.114;13.906;2023-03-14T02:49:16;4.72;;;3.25;;
33367;SDS011;19724;51.114;13.906;2023-03-14T02:51:44;4.20;;;2.38;;
33367;SDS011;19724;51.114;13.906;2023-03-14T02:54:10;3.92;;;2.42;;
33367;SDS011;19724;51.114;13.906;2023-03-14T02:56:38;4.63;;;2.63;;
33367;SDS011;19724;51.114;13.906;2023-03-14T02:59:04;4.63;;;2.10;;
33367;SDS011;19724;51.114;13.906;2023-03-14T03:01:30;3.88;;;2.53;;
33367;SDS011;19724;51.114;13.906;2023-03-14T03:03:58;3.85;;;2.38;;
33367;SDS011;19724;51.114;13.906;2023-03-14T03:06:23;2.78;;;1.73;;
33367;SDS011;19724;51.114;13.906;2023-03-14T03:08:49;2.13;;;1.42;;
33367;SDS011;19724;51.114;13.906;2023-03-14T03:11:15;3.75;;;1.88;;
33367;SDS011;19724;51.114;13.906;2023-03-14T03:13:40;2.85;;;1.75;;
33367;SDS011;19724;51.114;13.906;2023-03-14T03:16:06;2.03;;;1.30;;
33367;SDS011;19724;51.114;13.906;2023-03-14T03:18:32;1.80;;;1.20;;
33367;SDS011;19724;51.114;13.906;2023-03-14T03:21:01;2.08;;;1.17;;
33367;SDS011;19724;51.114;13.906;2023-03-14T03:23:28;1.58;;;1.13;;
33367;SDS011;19724;51.114;13.906;2023-03-14T03:25:55;2.08;;;1.08;;
33367;SDS011;19724;51.114;13.906;2023-03-14T03:28:21;2.33;;;1.33;;
33367;SDS011;19724;51.114;13.906;2023-03-14T03:33:15;3.42;;;1.30;;
33367;SDS011;19724;51.114;13.906;2023-03-14T03:35:42;2.50;;;1.17;;
33367;SDS011;19724;51.114;13.906;2023-03-14T03:38:09;2.10;;;1.10;;
33367;SDS011;19724;51.114;13.906;2023-03-14T03:40:34;1.85;;;1.10;;
33367;SDS011;19724;51.114;13.906;2023-03-14T03:42:59;1.75;;;0.93;;
33367;SDS011;19724;51.114;13.906;2023-03-14T03:45:25;1.95;;;1.10;;
33367;SDS011;19724;51.114;13.906;2023-03-14T03:47:51;1.95;;;0.88;;
33367;SDS011;19724;51.114;13.906;2023-03-14T03:50:16;4.30;;;1.73;;
33367;SDS011;19724;51.114;13.906;2023-03-14T03:52:42;1.83;;;1.00;;
33367;SDS011;19724;51.114;13.906;2023-03-14T03:55:07;1.83;;;0.98;;
33367;SDS011;19724;51.114;13.906;2023-03-14T03:57:34;2.08;;;0.77;;
33367;SDS011;19724;51.114;13.906;2023-03-14T03:59:59;1.63;;;1.00;;
33367;SDS011;19724;51.114;13.906;2023-03-14T04:02:25;1.27;;;0.77;;
33367;SDS011;19724;51.114;13.906;2023-03-14T04:04:50;5.82;;;0.90;;
33367;SDS011;19724;51.114;13.906;2023-03-14T04:07:16;1.30;;;0.90;;
33367;SDS011;19724;51.114;13.906;2023-03-14T04:09:41;2.80;;;0.82;;
33367;SDS011;19724;51.114;13.906;2023-03-14T04:12:07;1.42;;;0.80;;
33367;SDS011;19724;51.114;13.906;2023-03-14T04:14:32;1.17;;;0.65;;
33367;SDS011;19724;51.114;13.906;2023-03-14T04:16:58;1.10;;;0.70;;
33367;SDS011;19724;51.114;13.906;2023-03-14T04:19:23;1.15;;;0.73;;
33367;SDS011;19724;51.114;13.906;2023-03-14T04:21:49;1.42;;;0.80;;
33367;SDS011;19724;51.114;13.906;2023-03-14T04:24:14;0.80;;;0.73;;
33367;SDS011;19724;51.114;13.906;2023-03-14T04:26:39;1.58;;;0.60;;
33367;SDS011;19724;51.114;13.906;2023-03-14T04:29:05;2.05;;;0.85;;
33367;SDS011;19724;51.114;13.906;2023-03-14T04:31:30;3.25;;;0.80;;
33367;SDS011;19724;51.114;13.906;2023-03-14T04:33:56;1.48;;;0.60;;
33367;SDS011;19724;51.114;13.906;2023-03-14T04:36:21;1.17;;;0.60;;
33367;SDS011;19724;51.114;13.906;2023-03-14T04:38:47;1.35;;;0.70;;
33367;SDS011;19724;51.114;13.906;2023-03-14T04:41:12;1.23;;;0.70;;
33367;SDS011;19724;51.114;13.906;2023-03-14T04:43:38;0.68;;;0.60;;
33367;SDS011;19724;51.114;13.906;2023-03-14T04:46:03;0.82;;;0.70;;
33367;SDS011;19724;51.114;13.906;2023-03-14T04:48:29;1.27;;;0.60;;
33367;SDS011;19724;51.114;13.906;2023-03-14T04:50:55;3.58;;;0.80;;
33367;SDS011;19724;51.114;13.906;2023-03-14T04:53:20;2.08;;;0.70;;
33367;SDS011;19724;51.114;13.906;2023-03-14T04:55:50;1.45;;;0.77;;
33367;SDS011;19724;51.114;13.906;2023-03-14T04:58:19;1.65;;;0.98;;
33367;SDS011;19724;51.114;13.906;2023-03-14T05:00:45;2.00;;;0.93;;
33367;SDS011;19724;51.114;13.906;2023-03-14T05:03:14;2.50;;;1.00;;
33367;SDS011;19724;51.114;13.906;2023-03-14T05:05:40;4.13;;;0.93;;
33367;SDS011;19724;51.114;13.906;2023-03-14T05:08:06;1.23;;;0.70;;
33367;SDS011;19724;51.114;13.906;2023-03-14T05:10:31;2.45;;;0.90;;
33367;SDS011;19724;51.114;13.906;2023-03-14T05:12:57;2.45;;;0.82;;
33367;SDS011;19724;51.114;13.906;2023-03-14T05:15:22;2.08;;;0.93;;
33367;SDS011;19724;51.114;13.906;2023-03-14T05:17:48;3.75;;;1.00;;
33367;SDS011;19724;51.114;13.906;2023-03-14T05:20:14;2.38;;;0.90;;
33367;SDS011;19724;51.114;13.906;2023-03-14T05:22:40;4.25;;;1.00;;
33367;SDS011;19724;51.114;13.906;2023-03-14T05:25:06;4.40;;;1.10;;
33367;SDS011;19724;51.114;13.906;2023-03-14T05:27:32;3.88;;;1.50;;
33367;SDS011;19724;51.114;13.906;2023-03-14T05:29:58;6.43;;;1.25;;
33367;SDS011;19724;51.114;13.906;2023-03-14T05:32:23;2.45;;;0.93;;
33367;SDS011;19724;51.114;13.906;2023-03-14T05:34:49;4.22;;;1.70;;
33367;SDS011;19724;51.114;13.906;2023-03-14T05:37:14;4.10;;;1.98;;
33367;SDS011;19724;51.114;13.906;2023-03-14T05:39:40;2.90;;;0.95;;
33367;SDS011;19724;51.114;13.906;2023-03-14T05:42:05;4.72;;;1.50;;
33367;SDS011;19724;51.114;13.906;2023-03-14T05:44:31;3.92;;;1.33;;
33367;SDS011;19724;51.114;13.906;2023-03-14T05:46:59;1.73;;;0.77;;
33367;SDS011;19724;51.114;13.906;2023-03-14T05:49:25;5.55;;;1.27;;
33367;SDS011;19724;51.114;13.906;2023-03-14T05:51:50;6.53;;;1.30;;
33367;SDS011;19724;51.114;13.906;2023-03-14T05:54:16;2.92;;;1.00;;
33367;SDS011;19724;51.114;13.906;2023-03-14T05:56:42;3.72;;;1.60;;
33367;SDS011;19724;51.114;13.906;2023-03-14T05:59:08;3.28;;;1.25;;
33367;SDS011;19724;51.114;13.906;2023-03-14T06:01:34;4.80;;;1.42;;
33367;SDS011;19724;51.114;13.906;2023-03-14T06:04:03;4.07;;;1.63;;
33367;SDS011;19724;51.114;13.906;2023-03-14T06:06:29;6.43;;;1.17;;
33367;SDS011;19724;51.114;13.906;2023-03-14T06:08:55;3.83;;;1.17;;
33367;SDS011;19724;51.114;13.906;2023-03-14T06:11:20;5.30;;;1.23;;
33367;SDS011;19724;51.114;13.906;2023-03-14T06:13:46;6.22;;;1.58;;
33367;SDS011;19724;51.114;13.906;2023-03-14T06:16:11;3.03;;;1.42;;
33367;SDS011;19724;51.114;13.906;2023-03-14T06:18:37;6.13;;;1.38;;
33367;SDS011;19724;51.114;13.906;2023-03-14T06:21:06;7.25;;;1.50;;
33367;SDS011;19724;51.114;13.906;2023-03-14T06:23:31;5.70;;;2.03;;
33367;SDS011;19724;51.114;13.906;2023-03-14T06:25:57;5.63;;;1.77;;
33367;SDS011;19724;51.114;13.906;2023-03-14T06:28:22;5.25;;;1.42;;
33367;SDS011;19724;51.114;13.906;2023-03-14T06:30:48;4.13;;;1.30;;
33367;SDS011;19724;51.114;13.906;2023-03-14T06:33:14;5.68;;;1.45;;
33367;SDS011;19724;51.114;13.906;2023-03-14T06:35:39;6.47;;;1.60;;
33367;SDS011;19724;51.114;13.906;2023-03-14T06:38:05;5.57;;;1.15;;
33367;SDS011;19724;51.114;13.906;2023-03-14T06:40:30;8.15;;;1.80;;
33367;SDS011;19724;51.114;13.906;2023-03-14T06:42:56;4.03;;;1.15;;
33367;SDS011;19724;51.114;13.906;2023-03-14T06:45:21;7.13;;;2.22;;
33367;SDS011;19724;51.114;13.906;2023-03-14T06:47:47;4.25;;;1.40;;
33367;SDS011;19724;51.114;13.906;2023-03-14T06:50:12;6.68;;;1.77;;
33367;SDS011;19724;51.114;13.906;2023-03-14T06:52:38;6.97;;;1.40;;
33367;SDS011;19724;51.114;13.906;2023-03-14T06:55:06;9.27;;;2.85;;
33367;SDS011;19724;51.114;13.906;2023-03-14T06:57:33;4.93;;;1.25;;
33367;SDS011;19724;51.114;13.906;2023-03-14T06:59:58;10.07;;;2.75;;
33367;SDS011;19724;51.114;13.906;2023-03-14T07:02:23;4.15;;;1.48;;
33367;SDS011;19724;51.114;13.906;2023-03-14T07:04:49;5.45;;;2.33;;
33367;SDS011;19724;51.114;13.906;2023-03-14T07:07:14;5.95;;;1.45;;
33367;SDS011;19724;51.114;13.906;2023-03-14T07:09:41;6.53;;;1.33;;
33367;SDS011;19724;51.114;13.906;2023-03-14T07:12:06;6.07;;;1.75;;
33367;SDS011;19724;51.114;13.906;2023-03-14T07:14:32;9.13;;;1.42;;
33367;SDS011;19724;51.114;13.906;2023-03-14T07:16:57;5.70;;;1.38;;
33367;SDS011;19724;51.114;13.906;2023-03-14T07:19:23;3.78;;;1.23;;
33367;SDS011;19724;51.114;13.906;2023-03-14T07:21:48;7.10;;;1.60;;
33367;SDS011;19724;51.114;13.906;2023-03-14T07:24:14;7.03;;;1.45;;
33367;SDS011;19724;51.114;13.906;2023-03-14T07:26:39;3.90;;;1.20;;
33367;SDS011;19724;51.114;13.906;2023-03-14T07:29:05;5.93;;;1.58;;
33367;SDS011;19724;51.114;13.906;2023-03-14T07:31:30;5.22;;;1.67;;
33367;SDS011;19724;51.114;13.906;2023-03-14T07:33:56;6.35;;;1.55;;
33367;SDS011;19724;51.114;13.906;2023-03-14T07:36:22;3.53;;;1.40;;
33367;SDS011;19724;51.114;13.906;2023-03-14T07:38:47;8.32;;;1.45;;
33367;SDS011;19724;51.114;13.906;2023-03-14T07:41:13;6.97;;;2.28;;
33367;SDS011;19724;51.114;13.906;2023-03-14T07:43:38;7.32;;;1.45;;
33367;SDS011;19724;51.114;13.906;2023-03-14T07:46:04;3.90;;;1.55;;
33367;SDS011;19724;51.114;13.906;2023-03-14T07:48:30;4.07;;;1.35;;
33367;SDS011;19724;51.114;13.906;2023-03-14T07:50:56;5.90;;;1.65;;
33367;SDS011;19724;51.114;13.906;2023-03-14T07:53:22;5.43;;;1.73;;
33367;SDS011;19724;51.114;13.906;2023-03-14T07:55:47;3.45;;;1.45;;
33367;SDS011;19724;51.114;13.906;2023-03-14T07:58:15;11.60;;;1.88;;
33367;SDS011;19724;51.114;13.906;2023-03-14T08:00:40;7.68;;;1.63;;
33367;SDS011;19724;51.114;13.906;2023-03-14T08:03:06;7.65;;;1.52;;
33367;SDS011;19724;51.114;13.906;2023-03-14T08:05:33;5.65;;;1.33;;
33367;SDS011;19724;51.114;13.906;2023-03-14T08:08:00;3.90;;;1.20;;
33367;SDS011;19724;51.114;13.906;2023-03-14T08:10:25;8.23;;;1.60;;
33367;SDS011;19724;51.114;13.906;2023-03-14T08:12:56;7.05;;;1.90;;
33367;SDS011;19724;51.114;13.906;2023-03-14T08:15:23;7.30;;;1.80;;
33367;SDS011;19724;51.114;13.906;2023-03-14T08:17:49;6.57;;;1.38;;
33367;SDS011;19724;51.114;13.906;2023-03-14T08:20:20;9.00;;;2.20;;
33367;SDS011;19724;51.114;13.906;2023-03-14T08:22:46;7.40;;;1.85;;
33367;SDS011;19724;51.114;13.906;2023-03-14T08:25:12;6.78;;;1.67;;
33367;SDS011;19724;51.114;13.906;2023-03-14T08:27:38;3.58;;;1.52;;
33367;SDS011;19724;51.114;13.906;2023-03-14T08:30:04;4.88;;;1.80;;
33367;SDS011;19724;51.114;13.906;2023-03-14T08:32:31;4.25;;;1.30;;
33367;SDS011;19724;51.114;13.906;2023-03-14T08:34:57;5.80;;;1.35;;
33367;SDS011;19724;51.114;13.906;2023-03-14T08:37:22;4.60;;;1.40;;
33367;SDS011;19724;51.114;13.906;2023-03-14T08:39:49;7.10;;;1.27;;
33367;SDS011;19724;51.114;13.906;2023-03-14T08:42:15;3.63;;;0.98;;
33367;SDS011;19724;51.114;13.906;2023-03-14T08:44:41;4.38;;;1.20;;
33367;SDS011;19724;51.114;13.906;2023-03-14T08:47:06;4.65;;;1.48;;
33367;SDS011;19724;51.114;13.906;2023-03-14T08:49:32;3.08;;;1.00;;
33367;SDS011;19724;51.114;13.906;2023-03-14T08:51:57;3.78;;;1.48;;
33367;SDS011;19724;51.114;13.906;2023-03-14T08:54:23;6.15;;;1.40;;
33367;SDS011;19724;51.114;13.906;2023-03-14T08:56:49;3.40;;;1.30;;
33367;SDS011;19724;51.114;13.906;2023-03-14T08:59:14;4.38;;;1.30;;
33367;SDS011;19724;51.114;13.906;2023-03-14T09:01:40;4.47;;;1.27;;
33367;SDS011;19724;51.114;13.906;2023-03-14T09:04:05;8.02;;;1.45;;
33367;SDS011;19724;51.114;13.906;2023-03-14T09:06:31;3.80;;;1.05;;
33367;SDS011;19724;51.114;13.906;2023-03-14T09:08:57;4.10;;;1.50;;
33367;SDS011;19724;51.114;13.906;2023-03-14T09:11:23;5.72;;;1.33;;
33367;SDS011;19724;51.114;13.906;2023-03-14T09:13:48;2.55;;;0.95;;
33367;SDS011;19724;51.114;13.906;2023-03-14T09:16:14;1.90;;;0.95;;
33367;SDS011;19724;51.114;13.906;2023-03-14T09:18:39;2.95;;;0.80;;
33367;SDS011;19724;51.114;13.906;2023-03-14T09:21:05;2.97;;;1.08;;
33367;SDS011;19724;51.114;13.906;2023-03-14T09:23:30;6.95;;;1.20;;
33367;SDS011;19724;51.114;13.906;2023-03-14T09:25:59;1.88;;;0.80;;
33367;SDS011;19724;51.114;13.906;2023-03-14T09:28:25;2.90;;;1.10;;
33367;SDS011;19724;51.114;13.906;2023-03-14T09:30:51;4.68;;;1.10;;
33367;SDS011;19724;51.114;13.906;2023-03-14T09:33:28;3.05;;;1.40;;
33367;SDS011;19724;51.114;13.906;2023-03-14T09:35:53;3.53;;;1.20;;
33367;SDS011;19724;51.114;13.906;2023-03-14T09:38:18;2.42;;;0.98;;
33367;SDS011;19724;51.114;13.906;2023-03-14T09:40:45;4.20;;;1.00;;
33367;SDS011;19724;51.114;13.906;2023-03-14T09:43:12;3.33;;;1.20;;
33367;SDS011;19724;51.114;13.906;2023-03-14T09:45:39;2.92;;;1.23;;
33367;SDS011;19724;51.114;13.906;2023-03-14T09:48:08;4.32;;;1.17;;
33367;SDS011;19724;51.114;13.906;2023-03-14T09:50:42;4.00;;;1.95;;
33367;SDS011;19724;51.114;13.906;2023-03-14T09:53:12;3.70;;;1.60;;
33367;SDS011;19724;51.114;13.906;2023-03-14T09:55:41;3.40;;;1.00;;
33367;SDS011;19724;51.114;13.906;2023-03-14T09:58:16;6.57;;;1.20;;
33367;SDS011;19724;51.114;13.906;2023-03-14T10:00:44;2.05;;;0.77;;
33367;SDS011;19724;51.114;13.906;2023-03-14T10:05:38;2.20;;;1.00;;
33367;SDS011;19724;51.114;13.906;2023-03-14T10:08:05;2.10;;;0.95;;
33367;SDS011;19724;51.114;13.906;2023-03-14T10:10:31;3.03;;;0.70;;
33367;SDS011;19724;51.114;13.906;2023-03-14T10:15:46;3.55;;;1.35;;
33367;SDS011;19724;51.114;13.906;2023-03-14T10:18:17;1.80;;;1.00;;
33367;SDS011;19724;51.114;13.906;2023-03-14T10:20:45;2.38;;;1.10;;
33367;SDS011;19724;51.114;13.906;2023-03-14T10:25:39;3.20;;;0.88;;
33367;SDS011;19724;51.114;13.906;2023-03-14T10:28:29;3.35;;;0.77;;
33367;SDS011;19724;51.114;13.906;2023-03-14T10:31:00;3.63;;;0.77;;
33367;SDS011;19724;51.114;13.906;2023-03-14T10:33:27;3.42;;;1.17;;
33367;SDS011;19724;51.114;13.906;2023-03-14T10:35:58;5.30;;;1.13;;
33367;SDS011;19724;51.114;13.906;2023-03-14T10:38:47;2.20;;;0.95;;
33367;SDS011;19724;51.114;13.906;2023-03-14T10:41:17;1.30;;;0.85;;
33367;SDS011;19724;51.114;13.906;2023-03-14T10:43:52;1.92;;;1.13;;
33367;SDS011;19724;51.114;13.906;2023-03-14T10:46:21;6.25;;;1.10;;
33367;SDS011;19724;51.114;13.906;2023-03-14T10:48:50;2.10;;;0.93;;
33367;SDS011;19724;51.114;13.906;2023-03-14T10:51:27;1.80;;;0.70;;
33367;SDS011;19724;51.114;13.906;2023-03-14T10:54:01;2.97;;;0.90;;
33367;SDS011;19724;51.114;13.906;2023-03-14T10:56:37;2.47;;;1.00;;
33367;SDS011;19724;51.114;13.906;2023-03-14T10:59:03;2.08;;;1.02;;
33367;SDS011;19724;51.114;13.906;2023-03-14T11:09:46;1.00;;;0.88;;
33367;SDS011;19724;51.114;13.906;2023-03-14T11:15:49;2.35;;;0.80;;
33367;SDS011;19724;51.114;13.906;2023-03-14T11:21:11;2.45;;;0.80;;
33367;SDS011;19724;51.114;13.906;2023-03-14T11:23:56;2.03;;;0.82;;
33367;SDS011;19724;51.114;13.906;2023-03-14T11:29:10;1.35;;;0.73;;
33367;SDS011;19724;51.114;13.906;2023-03-14T11:31:44;2.70;;;0.88;;
33367;SDS011;19724;51.114;13.906;2023-03-14T11:34:22;0.90;;;0.68;;
33367;SDS011;19724;51.114;13.906;2023-03-14T11:36:57;2.80;;;0.90;;
33367;SDS011;19724;51.114;13.906;2023-03-14T11:39:26;1.85;;;0.70;;
33367;SDS011;19724;51.114;13.906;2023-03-14T11:42:00;2.47;;;0.73;;
33367;SDS011;19724;51.114;13.906;2023-03-14T11:44:30;1.98;;;0.80;;
33367;SDS011;19724;51.114;13.906;2023-03-14T11:49:34;1.48;;;0.50;;
33367;SDS011;19724;51.114;13.906;2023-03-14T11:54:48;2.75;;;0.95;;
33367;SDS011;19724;51.114;13.906;2023-03-14T11:57:19;2.25;;;0.90;;
33367;SDS011;19724;51.114;13.906;2023-03-14T11:59:55;2.05;;;0.80;;
33367;SDS011;19724;51.114;13.906;2023-03-14T12:08:32;3.13;;;0.90;;
33367;SDS011;19724;51.114;13.906;2023-03-14T12:11:17;2.53;;;1.15;;
33367;SDS011;19724;51.114;13.906;2023-03-14T12:13:57;2.78;;;1.02;;
33367;SDS011;19724;51.114;13.906;2023-03-14T12:18:49;7.85;;;1.48;;
33367;SDS011;19724;51.114;13.906;2023-03-14T12:21:15;2.65;;;1.10;;
33367;SDS011;19724;51.114;13.906;2023-03-14T12:23:43;2.45;;;1.13;;
33367;SDS011;19724;51.114;13.906;2023-03-14T12:26:17;2.83;;;1.25;;
33367;SDS011;19724;51.114;13.906;2023-03-14T12:28:52;2.20;;;0.82;;
33367;SDS011;19724;51.114;13.906;2023-03-14T12:34:24;3.03;;;0.95;;
33367;SDS011;19724;51.114;13.906;2023-03-14T12:37:00;2.55;;;0.70;;
33367;SDS011;19724;51.114;13.906;2023-03-14T12:39:37;1.88;;;0.80;;
33367;SDS011;19724;51.114;13.906;2023-03-14T12:44:38;4.78;;;0.93;;
33367;SDS011;19724;51.114;13.906;2023-03-14T12:47:39;2.75;;;1.25;;
33367;SDS011;19724;51.114;13.906;2023-03-14T12:50:01;1.95;;;0.70;;
33367;SDS011;19724;51.114;13.906;2023-03-14T12:52:48;2.20;;;0.75;;
33367;SDS011;19724;51.114;13.906;2023-03-14T12:55:36;1.77;;;0.80;;
33367;SDS011;19724;51.114;13.906;2023-03-14T12:58:22;2.78;;;0.80;;
33367;SDS011;19724;51.114;13.906;2023-03-14T13:01:04;1.95;;;0.93;;
33367;SDS011;19724;51.114;13.906;2023-03-14T13:03:50;1.38;;;0.68;;
33367;SDS011;19724;51.114;13.906;2023-03-14T13:11:59;2.55;;;0.77;;
33367;SDS011;19724;51.114;13.906;2023-03-14T13:14:41;1.83;;;0.70;;
33367;SDS011;19724;51.114;13.906;2023-03-14T13:17:13;1.58;;;0.60;;
33367;SDS011;19724;51.114;13.906;2023-03-14T13:19:39;1.02;;;0.60;;
33367;SDS011;19724;51.114;13.906;2023-03-14T13:22:21;1.23;;;0.55;;
33367;SDS011;19724;51.114;13.906;2023-03-14T13:24:50;4.50;;;0.75;;
33367;SDS011;19724;51.114;13.906;2023-03-14T13:27:22;1.13;;;0.57;;
33367;SDS011;19724;51.114;13.906;2023-03-14T13:29:49;0.45;;;0.40;;
33367;SDS011;19724;51.114;13.906;2023-03-14T13:32:22;1.90;;;0.55;;
33367;SDS011;19724;51.114;13.906;2023-03-14T13:34:55;1.92;;;0.60;;
33367;SDS011;19724;51.114;13.906;2023-03-14T13:37:23;0.82;;;0.50;;
33367;SDS011;19724;51.114;13.906;2023-03-14T13:39:50;0.75;;;0.50;;
33367;SDS011;19724;51.114;13.906;2023-03-14T13:42:18;1.35;;;0.60;;
33367;SDS011;19724;51.114;13.906;2023-03-14T13:44:44;0.70;;;0.50;;
33367;SDS011;19724;51.114;13.906;2023-03-14T13:47:12;1.30;;;0.30;;
33367;SDS011;19724;51.114;13.906;2023-03-14T13:49:41;0.80;;;0.50;;
33367;SDS011;19724;51.114;13.906;2023-03-14T13:55:12;0.63;;;0.40;;
33367;SDS011;19724;51.114;13.906;2023-03-14T14:00:22;1.15;;;0.63;;
33367;SDS011;19724;51.114;13.906;2023-03-14T14:02:53;2.05;;;0.45;;
33367;SDS011;19724;51.114;13.906;2023-03-14T14:05:20;2.30;;;0.50;;
33367;SDS011;19724;51.114;13.906;2023-03-14T14:07:46;2.47;;;1.00;;
33367;SDS011;19724;51.114;13.906;2023-03-14T14:10:14;1.80;;;0.75;;
33367;SDS011;19724;51.114;13.906;2023-03-14T14:12:42;1.35;;;0.50;;
33367;SDS011;19724;51.114;13.906;2023-03-14T14:15:23;2.75;;;0.52;;
33367;SDS011;19724;51.114;13.906;2023-03-14T14:20:29;2.38;;;0.75;;
33367;SDS011;19724;51.114;13.906;2023-03-14T14:23:01;1.08;;;0.43;;
33367;SDS011;19724;51.114;13.906;2023-03-14T14:25:28;0.90;;;0.60;;
33367;SDS011;19724;51.114;13.906;2023-03-14T14:27:58;1.95;;;0.60;;
33367;SDS011;19724;51.114;13.906;2023-03-14T14:30:25;1.48;;;0.52;;
33367;SDS011;19724;51.114;13.906;2023-03-14T14:32:52;1.17;;;0.50;;
33367;SDS011;19724;51.114;13.906;2023-03-14T14:35:25;0.55;;;0.50;;
33367;SDS011;19724;51.114;13.906;2023-03-14T14:37:56;1.75;;;0.50;;
33367;SDS011;19724;51.114;13.906;2023-03-14T14:40:23;1.45;;;0.88;;
33367;SDS011;19724;51.114;13.906;2023-03-14T14:42:51;2.58;;;0.60;;
33367;SDS011;19724;51.114;13.906;2023-03-14T14:45:21;0.50;;;0.45;;
33367;SDS011;19724;51.114;13.906;2023-03-14T14:50:20;0.98;;;0.45;;
33367;SDS011;19724;51.114;13.906;2023-03-14T14:52:56;0.75;;;0.50;;
33367;SDS011;19724;51.114;13.906;2023-03-14T14:55:22;2.15;;;0.65;;
33367;SDS011;19724;51.114;13.906;2023-03-14T14:57:56;1.35;;;0.57;;
33367;SDS011;19724;51.114;13.906;2023-03-14T15:00:24;1.08;;;0.55;;
33367;SDS011;19724;51.114;13.906;2023-03-14T15:02:53;0.73;;;0.40;;
33367;SDS011;19724;51.114;13.906;2023-03-14T15:05:26;2.88;;;0.73;;
33367;SDS011;19724;51.114;13.906;2023-03-14T15:07:55;1.67;;;0.60;;
33367;SDS011;19724;51.114;13.906;2023-03-14T15:10:22;1.15;;;0.40;;
33367;SDS011;19724;51.114;13.906;2023-03-14T15:12:49;1.70;;;0.68;;
33367;SDS011;19724;51.114;13.906;2023-03-14T15:15:15;2.80;;;0.50;;
33367;SDS011;19724;51.114;13.906;2023-03-14T15:17:41;0.75;;;0.40;;
33367;SDS011;19724;51.114;13.906;2023-03-14T15:20:11;0.77;;;0.50;;
33367;SDS011;19724;51.114;13.906;2023-03-14T15:22:39;0.90;;;0.60;;
33367;SDS011;19724;51.114;13.906;2023-03-14T15:25:05;0.90;;;0.60;;
33367;SDS011;19724;51.114;13.906;2023-03-14T15:27:31;2.47;;;0.40;;
33367;SDS011;19724;51.114;13.906;2023-03-14T15:29:57;0.77;;;0.40;;
33367;SDS011;19724;51.114;13.906;2023-03-14T15:32:24;0.98;;;0.40;;
33367;SDS011;19724;51.114;13.906;2023-03-14T15:34:52;1.65;;;0.68;;
33367;SDS011;19724;51.114;13.906;2023-03-14T15:37:19;1.88;;;0.68;;
33367;SDS011;19724;51.114;13.906;2023-03-14T15:39:44;0.80;;;0.50;;
33367;SDS011;19724;51.114;13.906;2023-03-14T15:42:10;0.63;;;0.50;;
33367;SDS011;19724;51.114;13.906;2023-03-14T15:44:36;0.77;;;0.50;;
33367;SDS011;19724;51.114;13.906;2023-03-14T15:47:02;0.40;;;0.40;;
33367;SDS011;19724;51.114;13.906;2023-03-14T15:49:34;1.02;;;0.40;;